Time;durP1;ratioP1;P1;durP2;ratioP2;P2;SDS_P1;SDS_P2;PMS_P1;PMS_P2;Temp;Humidity;BMP_temperature;BMP_pressure;BME280_temperature;BME280_humidity;BME280_pressure;Samples;Min_cycle;Max_cycle;Signal;HPM_P1;HPM_P2
2023/11/29 00:00:19;;;;;;;5.90;4.00;;;0.60;99.90;;;;;;5094820;28;20431;-68
2023/11/29 00:02:44;;;;;;;9.10;5.33;;;0.60;99.90;;;;;;5094781;28;20407;-68
2023/11/29 00:05:11;;;;;;;6.40;4.47;;;0.50;99.90;;;;;;5094669;28;20750;-68
2023/11/29 00:07:37;;;;;;;6.33;4.60;;;0.60;99.90;;;;;;5094551;28;20188;-67
2023/11/29 00:10:03;;;;;;;6.87;4.70;;;0.60;99.90;;;;;;5094618;28;20418;-68
2023/11/29 00:12:29;;;;;;;4.53;3.73;;;0.60;99.90;;;;;;5094620;28;20200;-68
2023/11/29 00:14:55;;;;;;;9.10;4.70;;;0.60;99.90;;;;;;5076696;28;20891;-68
2023/11/29 00:17:21;;;;;;;8.70;4.67;;;0.50;99.90;;;;;;5094339;28;20197;-67
2023/11/29 00:19:46;;;;;;;6.37;4.57;;;0.60;99.90;;;;;;5094394;28;20424;-68
2023/11/29 00:22:12;;;;;;;9.10;5.43;;;0.50;99.90;;;;;;5094343;28;20170;-68
2023/11/29 00:24:38;;;;;;;8.97;5.20;;;0.60;99.90;;;;;;5094419;28;20643;-67
2023/11/29 00:27:06;;;;;;;7.17;4.00;;;0.60;99.90;;;;;;5094324;28;20659;-68
2023/11/29 00:29:32;;;;;;;6.93;4.40;;;0.60;99.90;;;;;;5094094;28;20182;-68
2023/11/29 00:31:58;;;;;;;6.07;4.20;;;0.60;99.90;;;;;;5094133;28;20411;-67
2023/11/29 00:34:23;;;;;;;6.30;4.07;;;0.70;99.90;;;;;;5094161;28;20169;-68
2023/11/29 00:36:51;;;;;;;5.37;4.20;;;0.70;99.90;;;;;;5093947;28;20190;-68
2023/11/29 00:39:18;;;;;;;5.70;4.37;;;0.80;99.90;;;;;;5094020;28;20169;-68
2023/11/29 00:41:43;;;;;;;8.37;4.50;;;0.70;99.90;;;;;;5093954;28;20489;-68
2023/11/29 00:44:09;;;;;;;5.60;3.83;;;0.70;99.90;;;;;;5093947;28;20411;-67
2023/11/29 00:46:34;;;;;;;6.70;4.23;;;0.80;99.90;;;;;;5093818;28;20617;-68
2023/11/29 00:49:00;;;;;;;6.33;3.93;;;0.70;99.90;;;;;;5093804;28;20252;-68
2023/11/29 00:51:26;;;;;;;7.87;4.90;;;0.70;99.90;;;;;;5093589;28;20195;-68
2023/11/29 00:53:51;;;;;;;9.90;5.50;;;0.70;99.90;;;;;;5093896;28;20170;-68
2023/11/29 00:56:17;;;;;;;6.90;4.60;;;0.70;99.90;;;;;;5075467;28;20465;-68
2023/11/29 00:58:43;;;;;;;8.40;5.00;;;0.70;99.90;;;;;;5093707;28;20201;-68
2023/11/29 01:01:08;;;;;;;7.17;4.57;;;0.70;99.90;;;;;;5093507;28;20216;-68
2023/11/29 01:03:34;;;;;;;7.27;4.33;;;0.80;99.90;;;;;;5093576;28;20177;-68
2023/11/29 01:05:59;;;;;;;5.90;4.57;;;0.70;99.90;;;;;;5093583;28;20181;-68
2023/11/29 01:08:25;;;;;;;5.70;5.07;;;0.80;99.90;;;;;;5093577;28;20173;-67
2023/11/29 01:10:52;;;;;;;5.40;3.93;;;0.80;99.90;;;;;;5093390;28;20185;-68
2023/11/29 01:13:19;;;;;;;8.17;5.13;;;0.90;99.90;;;;;;5093335;28;20631;-67
2023/11/29 01:15:48;;;;;;;10.90;5.53;;;1.00;99.90;;;;;;5093479;28;20436;-68
2023/11/29 01:18:15;;;;;;;13.60;5.60;;;1.00;99.90;;;;;;5093173;28;20817;-68
2023/11/29 01:20:41;;;;;;;9.33;4.93;;;1.00;99.90;;;;;;5093245;28;20515;-68
2023/11/29 01:23:07;;;;;;;8.60;5.10;;;1.10;99.90;;;;;;5093319;28;20404;-68
2023/11/29 01:25:32;;;;;;;11.10;4.60;;;1.10;99.90;;;;;;5093274;28;20408;-68
2023/11/29 01:27:58;;;;;;;6.23;4.43;;;1.10;99.90;;;;;;5093095;28;20192;-68
2023/11/29 01:30:23;;;;;;;7.00;4.83;;;1.20;99.90;;;;;;5074860;28;20648;-68
2023/11/29 01:32:49;;;;;;;5.77;3.97;;;1.20;99.90;;;;;;5093070;28;20628;-68
2023/11/29 01:35:15;;;;;;;6.30;3.93;;;1.20;99.90;;;;;;5074997;28;20226;-68
2023/11/29 01:37:40;;;;;;;6.40;3.90;;;1.20;99.90;;;;;;5074656;28;20626;-68
2023/11/29 01:40:08;;;;;;;5.63;4.23;;;1.20;99.90;;;;;;5092948;28;20553;-68
2023/11/29 01:42:34;;;;;;;7.27;4.30;;;1.10;99.90;;;;;;5092856;28;20579;-68
2023/11/29 01:45:00;;;;;;;9.10;5.07;;;1.10;99.90;;;;;;5092980;28;20400;-68
2023/11/29 01:47:25;;;;;;;9.23;4.20;;;1.10;99.90;;;;;;5092693;28;20912;-68
2023/11/29 01:49:51;;;;;;;6.93;4.37;;;1.10;99.90;;;;;;5074619;28;20558;-68
2023/11/29 01:52:17;;;;;;;8.73;4.50;;;1.10;99.90;;;;;;5074375;28;20481;-68
2023/11/29 01:54:43;;;;;;;7.07;4.20;;;1.10;99.90;;;;;;5092671;28;20169;-68
2023/11/29 01:57:09;;;;;;;7.83;5.10;;;1.10;99.90;;;;;;5092446;28;20458;-68
2023/11/29 01:59:37;;;;;;;5.70;4.67;;;1.10;99.90;;;;;;5092754;28;20223;-68
2023/11/29 02:02:02;;;;;;;7.30;4.97;;;1.10;99.90;;;;;;5091971;28;20399;-68
2023/11/29 02:04:28;;;;;;;8.50;4.73;;;1.10;99.90;;;;;;5092459;28;20400;-68
2023/11/29 02:06:53;;;;;;;8.13;5.23;;;1.00;99.90;;;;;;5092290;28;20161;-68
2023/11/29 02:09:19;;;;;;;5.40;3.97;;;1.00;99.90;;;;;;5092379;28;20157;-68
2023/11/29 02:11:45;;;;;;;6.30;4.20;;;0.90;99.90;;;;;;5092193;28;20293;-68
2023/11/29 02:14:11;;;;;;;12.63;4.80;;;0.90;99.90;;;;;;5092439;28;20184;-68
2023/11/29 02:16:36;;;;;;;7.10;5.17;;;0.90;99.90;;;;;;5092106;28;20392;-68
2023/11/29 02:19:02;;;;;;;6.83;4.30;;;0.90;99.90;;;;;;5092205;28;20189;-68
2023/11/29 02:21:28;;;;;;;9.97;4.77;;;0.90;99.90;;;;;;5092266;28;20161;-68
2023/11/29 02:24:14;;;;;;;6.37;4.13;;;0.80;99.90;;;;;;5092249;28;20158;-68
2023/11/29 02:26:41;;;;;;;6.07;3.97;;;0.80;99.90;;;;;;5092124;28;20187;-68
2023/11/29 02:29:06;;;;;;;5.43;3.73;;;0.80;99.90;;;;;;5092131;28;20410;-68
2023/11/29 02:31:32;;;;;;;5.20;4.40;;;0.80;99.90;;;;;;5092028;28;20400;-68
2023/11/29 02:33:58;;;;;;;6.80;4.33;;;0.80;99.90;;;;;;5092102;28;20165;-68
2023/11/29 02:36:24;;;;;;;7.70;4.37;;;0.80;99.90;;;;;;5091853;28;20392;-68
2023/11/29 02:38:50;;;;;;;7.63;4.27;;;0.80;99.90;;;;;;5073879;28;20589;-68
2023/11/29 02:41:15;;;;;;;10.03;5.30;;;0.80;99.90;;;;;;5091899;28;20708;-68
2023/11/29 02:43:41;;;;;;;8.40;5.13;;;0.80;99.90;;;;;;5091889;28;20246;-68
2023/11/29 02:46:06;;;;;;;18.93;6.00;;;0.90;99.90;;;;;;5091737;28;20162;-68
2023/11/29 02:48:32;;;;;;;6.37;4.23;;;0.90;99.90;;;;;;5091892;28;20197;-68
2023/11/29 02:50:57;;;;;;;7.00;5.47;;;1.00;99.90;;;;;;5091729;28;20628;-68
2023/11/29 02:53:23;;;;;;;6.07;3.83;;;1.00;99.90;;;;;;5091723;28;20264;-68
2023/11/29 02:55:48;;;;;;;7.60;4.93;;;1.00;99.90;;;;;;5073972;28;20176;-68
2023/11/29 02:58:14;;;;;;;9.37;5.97;;;1.00;99.90;;;;;;5091713;28;20193;-68
2023/11/29 03:00:39;;;;;;;10.83;6.13;;;1.10;99.90;;;;;;5091722;28;20189;-68
2023/11/29 03:03:05;;;;;;;9.43;5.13;;;1.20;99.90;;;;;;5091894;28;20168;-68
2023/11/29 03:05:30;;;;;;;6.13;4.53;;;1.20;99.90;;;;;;5091847;28;20153;-68
2023/11/29 03:07:56;;;;;;;9.50;4.67;;;1.20;99.90;;;;;;5091669;28;20216;-68
2023/11/29 03:10:21;;;;;;;8.90;4.90;;;1.20;99.90;;;;;;5091810;28;20640;-68
2023/11/29 03:12:47;;;;;;;9.27;5.20;;;1.20;99.90;;;;;;5091677;28;20201;-68
2023/11/29 03:15:14;;;;;;;10.13;6.37;;;1.20;99.90;;;;;;5093881;28;20252;-68
2023/11/29 03:17:40;;;;;;;13.67;7.20;;;1.20;99.90;;;;;;5095561;28;20185;-68
2023/11/29 03:20:08;;;;;;;9.83;5.57;;;1.20;99.90;;;;;;5095572;28;20419;-68
2023/11/29 03:22:34;;;;;;;7.90;5.20;;;1.20;99.90;;;;;;5077662;28;20910;-68
2023/11/29 03:24:59;;;;;;;8.33;4.40;;;1.20;99.90;;;;;;5095704;28;20449;-68
2023/11/29 03:27:25;;;;;;;8.50;4.90;;;1.30;99.90;;;;;;5095479;28;20269;-68
2023/11/29 03:29:50;;;;;;;9.00;5.20;;;1.30;99.90;;;;;;5095392;28;20189;-68
2023/11/29 03:32:16;;;;;;;6.90;4.47;;;1.40;99.90;;;;;;5095433;28;20174;-68
2023/11/29 03:34:41;;;;;;;5.00;4.27;;;1.40;99.90;;;;;;5095460;28;20162;-68
2023/11/29 03:37:07;;;;;;;7.97;4.90;;;1.50;99.90;;;;;;5095155;28;20170;-68
2023/11/29 03:39:32;;;;;;;11.63;5.30;;;1.50;99.90;;;;;;5095348;28;20558;-68
2023/11/29 03:41:58;;;;;;;17.10;5.80;;;1.40;99.90;;;;;;5095265;28;20796;-68
2023/11/29 03:44:23;;;;;;;9.93;5.80;;;1.50;99.90;;;;;;5095209;28;20169;-68
2023/11/29 03:46:49;;;;;;;8.20;4.80;;;1.40;99.90;;;;;;5076875;28;20170;-68
2023/11/29 03:49:15;;;;;;;13.40;6.30;;;1.50;99.90;;;;;;5095056;28;20218;-68
2023/11/29 03:51:41;;;;;;;11.27;5.87;;;1.50;99.90;;;;;;5094899;28;20552;-68
2023/11/29 03:54:06;;;;;;;10.17;6.03;;;1.50;99.90;;;;;;5094994;28;20403;-68
2023/11/29 03:56:32;;;;;;;8.33;5.80;;;1.50;99.90;;;;;;5094824;28;20172;-68
2023/11/29 03:58:57;;;;;;;13.03;6.43;;;1.60;99.90;;;;;;5094805;28;20204;-68
2023/11/29 04:01:23;;;;;;;20.57;5.60;;;1.60;99.90;;;;;;5094779;28;20189;-68
2023/11/29 04:03:48;;;;;;;8.40;5.07;;;1.70;99.90;;;;;;5094776;28;20161;-68
2023/11/29 04:06:28;;;;;;;13.30;5.73;;;1.80;99.90;;;;;;5094776;28;20169;-68
2023/11/29 04:08:54;;;;;;;20.20;8.23;;;1.80;99.90;;;;;;5094790;28;20173;-68
2023/11/29 04:11:20;;;;;;;13.87;6.17;;;1.90;99.90;;;;;;5094620;28;20419;-68
2023/11/29 04:13:45;;;;;;;11.67;7.30;;;1.90;99.90;;;;;;5094494;28;20400;-68
2023/11/29 04:16:24;;;;;;;8.40;5.33;;;2.00;99.90;;;;;;5094494;28;20411;-68
2023/11/29 04:18:51;;;;;;;9.03;5.47;;;2.00;99.90;;;;;;5094443;28;20553;-68
2023/11/29 04:21:24;;;;;;;7.20;5.53;;;2.00;99.90;;;;;;5094402;28;20835;-68
2023/11/29 04:23:50;;;;;;;9.07;6.23;;;2.00;99.90;;;;;;5094390;28;20472;-68
2023/11/29 04:26:48;;;;;;;9.13;6.60;;;2.00;99.90;;;;;;5093914;28;20392;-68
2023/11/29 04:29:13;;;;;;;6.83;4.90;;;2.00;99.90;;;;;;5038706;28;20216;-69
2023/11/29 04:31:39;;;;;;;9.67;5.90;;;2.00;99.90;;;;;;5094275;28;20419;-68
2023/11/29 04:34:06;;;;;;;11.60;5.60;;;2.10;99.90;;;;;;5094293;28;20195;-69
2023/11/29 04:36:31;;;;;;;10.10;5.87;;;2.10;99.90;;;;;;5094134;28;20400;-68
2023/11/29 04:38:57;;;;;;;11.07;4.90;;;2.10;99.90;;;;;;5094096;28;20539;-68
2023/11/29 04:41:23;;;;;;;7.83;5.97;;;2.20;99.90;;;;;;5093994;28;20185;-68
2023/11/29 04:43:50;;;;;;;7.57;5.17;;;2.20;99.90;;;;;;5093994;28;20163;-69
2023/11/29 04:46:16;;;;;;;13.63;5.00;;;2.30;99.90;;;;;;5093984;28;20391;-68
2023/11/29 04:48:44;;;;;;;10.80;5.23;;;2.40;99.90;;;;;;5094016;28;20403;-68
2023/11/29 04:51:11;;;;;;;7.43;5.47;;;2.50;99.90;;;;;;5093989;28;20185;-68
2023/11/29 04:53:38;;;;;;;13.67;5.00;;;2.60;99.90;;;;;;5093840;28;20798;-68
2023/11/29 04:56:04;;;;;;;12.13;6.00;;;2.70;99.90;;;;;;5093775;28;20427;-68
2023/11/29 04:58:30;;;;;;;7.50;5.17;;;2.80;99.90;;;;;;5093592;28;20435;-68
2023/11/29 05:00:55;;;;;;;9.00;5.83;;;2.90;99.90;;;;;;5093601;28;20430;-69
2023/11/29 05:03:21;;;;;;;10.57;5.40;;;2.90;99.90;;;;;;5093738;28;20162;-68
2023/11/29 05:05:48;;;;;;;10.93;5.80;;;3.00;99.90;;;;;;5093554;28;20295;-68
2023/11/29 05:08:14;;;;;;;7.77;5.40;;;3.00;99.90;;;;;;5093523;28;20166;-68
2023/11/29 05:10:40;;;;;;;9.23;5.70;;;3.00;99.90;;;;;;5093494;28;20424;-68
2023/11/29 05:13:06;;;;;;;16.40;6.30;;;2.90;99.90;;;;;;5093440;28;20395;-69
2023/11/29 05:15:34;;;;;;;7.53;5.50;;;2.90;99.90;;;;;;5093518;28;20408;-68
2023/11/29 05:18:02;;;;;;;9.03;5.90;;;2.90;99.90;;;;;;5093236;28;20473;-68
2023/11/29 05:20:27;;;;;;;10.23;5.50;;;2.80;99.90;;;;;;5075145;28;20454;-68
2023/11/29 05:22:53;;;;;;;7.87;5.17;;;2.70;99.90;;;;;;5093281;28;20424;-68
2023/11/29 05:25:19;;;;;;;9.30;5.60;;;2.60;99.90;;;;;;5093254;28;20182;-68
2023/11/29 05:27:45;;;;;;;10.30;5.83;;;2.50;99.90;;;;;;5093046;28;20165;-68
2023/11/29 05:30:11;;;;;;;9.87;5.93;;;2.40;99.90;;;;;;5093065;28;20431;-68
2023/11/29 05:32:36;;;;;;;9.63;5.80;;;2.40;99.90;;;;;;5093029;28;20446;-68
2023/11/29 05:35:02;;;;;;;11.13;5.70;;;2.40;99.90;;;;;;5093057;28;20219;-68
2023/11/29 05:37:27;;;;;;;10.50;5.60;;;2.40;99.90;;;;;;5091972;28;20193;-68
2023/11/29 05:39:55;;;;;;;12.00;7.57;;;2.40;99.90;;;;;;5092898;28;20221;-68
2023/11/29 05:42:21;;;;;;;9.10;5.93;;;2.40;99.90;;;;;;5092799;28;20241;-68
2023/11/29 05:44:47;;;;;;;10.60;5.67;;;2.40;99.90;;;;;;5092892;28;20435;-68
2023/11/29 05:47:13;;;;;;;7.57;4.87;;;2.50;99.90;;;;;;5092730;28;20668;-69
2023/11/29 05:49:39;;;;;;;8.00;5.30;;;2.50;99.90;;;;;;5092676;28;20434;-68
2023/11/29 05:52:05;;;;;;;12.30;6.33;;;2.50;99.90;;;;;;5092471;28;20181;-68
2023/11/29 05:54:31;;;;;;;10.47;6.20;;;2.50;99.90;;;;;;5092759;28;20730;-68
2023/11/29 05:56:57;;;;;;;15.27;8.17;;;2.50;99.90;;;;;;5074168;28;20833;-69
2023/11/29 05:59:23;;;;;;;19.73;9.33;;;2.60;99.90;;;;;;5092513;28;20224;-68
2023/11/29 06:01:50;;;;;;;11.53;6.90;;;2.60;99.90;;;;;;5092527;28;21096;-68
2023/11/29 06:04:16;;;;;;;9.00;5.87;;;2.70;99.90;;;;;;5092520;28;20435;-69
2023/11/29 06:06:41;;;;;;;10.73;5.43;;;2.80;99.90;;;;;;5092352;28;20431;-68
2023/11/29 06:09:08;;;;;;;16.97;6.07;;;2.80;99.90;;;;;;5092224;28;20429;-68
2023/11/29 06:11:34;;;;;;;8.30;5.67;;;2.90;99.90;;;;;;5074240;28;20255;-68
2023/11/29 06:14:00;;;;;;;13.30;5.67;;;2.90;99.90;;;;;;5092341;28;20811;-68
2023/11/29 06:16:25;;;;;;;11.00;5.90;;;2.90;99.90;;;;;;5092172;28;20400;-68
2023/11/29 06:18:51;;;;;;;7.73;5.60;;;2.80;99.90;;;;;;5092240;28;20251;-68
2023/11/29 06:21:16;;;;;;;8.90;6.10;;;2.90;99.90;;;;;;5092192;28;20270;-68
2023/11/29 06:23:42;;;;;;;9.80;6.77;;;2.80;99.90;;;;;;5092304;28;20652;-68
2023/11/29 06:26:08;;;;;;;8.23;5.70;;;2.80;99.90;;;;;;5073917;28;20258;-68
2023/11/29 06:28:38;;;;;;;10.80;6.57;;;2.80;99.90;;;;;;5092329;28;20640;-68
2023/11/29 06:31:05;;;;;;;9.63;5.40;;;2.70;99.90;;;;;;5092195;28;20272;-68
2023/11/29 06:33:31;;;;;;;8.87;5.50;;;2.80;99.90;;;;;;5092096;28;20407;-68
2023/11/29 06:35:58;;;;;;;7.80;5.40;;;2.80;99.90;;;;;;5092140;28;20953;-68
2023/11/29 06:38:26;;;;;;;10.47;5.80;;;2.80;99.90;;;;;;5091859;28;20692;-68
2023/11/29 06:40:52;;;;;;;16.10;7.00;;;2.80;99.90;;;;;;5091934;28;20788;-68
2023/11/29 06:43:17;;;;;;;10.67;5.90;;;2.80;99.90;;;;;;5092086;28;20399;-68
2023/11/29 06:45:43;;;;;;;7.00;5.30;;;2.80;99.90;;;;;;5092079;28;20453;-68
2023/11/29 06:48:08;;;;;;;14.83;6.37;;;2.80;99.90;;;;;;5091768;28;20170;-68
2023/11/29 06:50:34;;;;;;;11.03;5.07;;;2.80;99.90;;;;;;5091837;28;20177;-68
2023/11/29 06:53:00;;;;;;;20.73;11.50;;;2.80;99.90;;;;;;5091774;28;20181;-68
2023/11/29 06:55:26;;;;;;;8.67;6.13;;;2.80;99.90;;;;;;5091968;28;20165;-68
2023/11/29 06:57:52;;;;;;;9.57;5.20;;;2.90;99.90;;;;;;5091729;28;20454;-68
2023/11/29 07:00:17;;;;;;;8.63;5.70;;;2.80;99.90;;;;;;5091849;28;20235;-68
2023/11/29 07:02:44;;;;;;;9.37;5.53;;;2.80;99.90;;;;;;5091772;28;20188;-68
2023/11/29 07:05:10;;;;;;;6.70;5.07;;;2.70;99.90;;;;;;5091842;28;20154;-68
2023/11/29 07:07:36;;;;;;;9.40;6.13;;;2.60;99.90;;;;;;5091718;28;20864;-68
2023/11/29 07:10:03;;;;;;;14.20;5.40;;;2.50;99.90;;;;;;5091720;28;20439;-69
2023/11/29 07:12:30;;;;;;;9.33;5.70;;;2.50;99.90;;;;;;5092014;28;20644;-68
2023/11/29 07:14:58;;;;;;;8.00;5.70;;;2.40;99.90;;;;;;5091767;28;20399;-68
2023/11/29 07:17:24;;;;;;;10.93;6.00;;;2.30;99.90;;;;;;5091574;28;20231;-69
2023/11/29 07:19:49;;;;;;;11.73;5.97;;;2.30;99.90;;;;;;5091628;28;20505;-69
2023/11/29 07:22:15;;;;;;;9.47;5.00;;;2.30;99.90;;;;;;5091569;28;20170;-69
2023/11/29 07:24:45;;;;;;;10.03;6.20;;;2.30;99.90;;;;;;5091668;28;20182;-69
2023/11/29 07:27:11;;;;;;;13.10;6.63;;;2.30;99.90;;;;;;5091608;28;20189;-69
2023/11/29 07:29:37;;;;;;;7.40;5.80;;;2.30;99.90;;;;;;5091535;28;20427;-69
2023/11/29 07:32:04;;;;;;;7.50;5.23;;;2.30;99.90;;;;;;5091562;28;20410;-69
2023/11/29 07:34:29;;;;;;;8.10;5.23;;;2.30;99.90;;;;;;5091538;28;20407;-69
2023/11/29 07:36:55;;;;;;;9.47;6.70;;;2.30;99.90;;;;;;5091404;28;20414;-69
2023/11/29 07:39:21;;;;;;;9.97;6.63;;;2.30;99.90;;;;;;5073329;28;20432;-69
2023/11/29 07:41:47;;;;;;;9.70;6.07;;;2.40;99.90;;;;;;5091483;28;20252;-67
2023/11/29 07:44:16;;;;;;;10.50;5.40;;;2.40;99.90;;;;;;5091470;28;20395;-67
2023/11/29 07:46:42;;;;;;;12.70;6.30;;;2.60;99.90;;;;;;5091326;28;20481;-67
2023/11/29 07:49:12;;;;;;;11.40;6.73;;;2.70;99.90;;;;;;5091336;28;20902;-67
2023/11/29 07:51:44;;;;;;;15.80;8.73;;;3.00;99.90;;;;;;5091355;28;20201;-68
2023/11/29 07:54:09;;;;;;;7.87;5.87;;;3.30;99.90;;;;;;5091565;28;20446;-68
2023/11/29 07:56:35;;;;;;;12.83;5.83;;;3.50;99.90;;;;;;5091212;28;20411;-68
2023/11/29 07:59:01;;;;;;;7.63;5.30;;;3.60;99.90;;;;;;5091356;28;20253;-68
2023/11/29 08:01:26;;;;;;;10.13;6.37;;;3.50;99.90;;;;;;5093441;28;20276;-68
2023/11/29 08:03:52;;;;;;;7.83;6.40;;;3.50;99.90;;;;;;5094953;28;20165;-68
2023/11/29 08:06:17;;;;;;;10.63;7.33;;;3.50;99.90;;;;;;5094744;28;20170;-68
2023/11/29 08:08:43;;;;;;;11.33;6.93;;;3.50;99.90;;;;;;5076663;28;20184;-68
2023/11/29 08:11:08;;;;;;;7.07;5.63;;;3.40;99.90;;;;;;5094733;28;20567;-68
2023/11/29 08:13:34;;;;;;;9.50;5.90;;;3.40;99.90;;;;;;5094816;28;20173;-68
2023/11/29 08:16:00;;;;;;;16.27;6.07;;;3.30;99.90;;;;;;5094631;28;20165;-68
2023/11/29 08:18:25;;;;;;;14.70;7.27;;;3.30;99.90;;;;;;5094408;28;20275;-68
2023/11/29 08:20:51;;;;;;;8.90;6.40;;;3.30;99.90;;;;;;5094546;28;20664;-68
2023/11/29 08:23:17;;;;;;;11.53;6.73;;;3.30;99.90;;;;;;5076310;28;20257;-68
2023/11/29 08:25:43;;;;;;;8.93;5.50;;;3.30;99.90;;;;;;5094539;28;20170;-68
2023/11/29 08:28:09;;;;;;;8.57;6.03;;;3.50;99.90;;;;;;5094016;28;20252;-68
2023/11/29 08:30:35;;;;;;;8.50;6.50;;;3.60;99.90;;;;;;5076340;28;20538;-69
2023/11/29 08:33:01;;;;;;;7.47;5.93;;;3.60;99.90;;;;;;5094517;28;20411;-68
2023/11/29 08:35:27;;;;;;;7.13;4.87;;;3.70;99.90;;;;;;5094265;28;20403;-69
2023/11/29 08:37:52;;;;;;;10.77;6.33;;;3.90;99.90;;;;;;5093986;28;20197;-68
2023/11/29 08:40:18;;;;;;;11.10;6.03;;;3.90;99.90;;;;;;5094129;28;20280;-68
2023/11/29 08:42:43;;;;;;;14.20;6.57;;;4.00;99.90;;;;;;5094081;28;20256;-68
2023/11/29 08:45:09;;;;;;;6.60;5.70;;;4.10;99.90;;;;;;5094101;28;20169;-69
2023/11/29 08:47:35;;;;;;;6.43;4.67;;;4.10;99.90;;;;;;5093903;28;20165;-69
2023/11/29 08:50:01;;;;;;;5.40;4.80;;;4.20;99.90;;;;;;5075892;28;20565;-69
2023/11/29 08:52:27;;;;;;;6.60;4.83;;;4.30;99.90;;;;;;5093661;28;20424;-68
2023/11/29 08:54:53;;;;;;;9.60;5.50;;;4.20;99.90;;;;;;5093979;28;20222;-69
2023/11/29 08:57:22;;;;;;;5.30;4.70;;;4.20;99.90;;;;;;5093583;28;20165;-69
2023/11/29 08:59:50;;;;;;;9.83;6.10;;;4.20;99.90;;;;;;5093726;28;20434;-69
2023/11/29 09:02:17;;;;;;;7.13;4.20;;;4.20;99.90;;;;;;5076923;28;20416;-69
2023/11/29 09:04:42;;;;;;;6.73;4.60;;;4.30;99.90;;;;;;5073851;28;20448;-69
2023/11/29 09:07:08;;;;;;;7.67;4.53;;;4.40;99.90;;;;;;5073253;28;20396;-69
2023/11/29 09:09:34;;;;;;;7.03;5.20;;;4.40;99.90;;;;;;5073355;28;20210;-69
2023/11/29 09:11:59;;;;;;;6.20;5.00;;;4.50;99.90;;;;;;5072127;28;20504;-69
2023/11/29 09:14:26;;;;;;;10.67;5.00;;;5.00;99.90;;;;;;5073266;28;20416;-69
2023/11/29 09:16:52;;;;;;;6.10;4.90;;;5.80;99.90;;;;;;5073191;28;20158;-69
2023/11/29 09:19:17;;;;;;;10.40;3.87;;;6.90;99.90;;;;;;5073059;28;20450;-69
2023/11/29 09:21:43;;;;;;;6.03;4.63;;;8.20;99.90;;;;;;5073061;28;20170;-69
2023/11/29 09:24:08;;;;;;;8.43;4.00;;;8.40;99.90;;;;;;5073138;28;20158;-69
2023/11/29 09:26:34;;;;;;;6.47;4.47;;;8.50;99.90;;;;;;5072926;28;20185;-69
2023/11/29 09:28:59;;;;;;;5.63;3.30;;;9.20;99.90;;;;;;5073005;28;20185;-69
2023/11/29 09:31:27;;;;;;;4.10;3.40;;;9.40;99.90;;;;;;5072824;28;20209;-69
2023/11/29 09:33:52;;;;;;;5.70;4.27;;;9.20;99.90;;;;;;5072921;28;20186;-69
2023/11/29 09:36:18;;;;;;;4.50;4.00;;;9.00;99.90;;;;;;5072649;28;20440;-69
2023/11/29 09:38:43;;;;;;;4.73;3.20;;;8.60;99.90;;;;;;5072809;28;20194;-69
2023/11/29 09:41:11;;;;;;;6.80;4.13;;;8.20;99.90;;;;;;5072693;28;20217;-69
2023/11/29 09:43:38;;;;;;;8.43;4.77;;;7.80;99.90;;;;;;5072760;28;20574;-69
2023/11/29 09:46:04;;;;;;;7.67;4.23;;;7.50;99.90;;;;;;5072553;28;20396;-69
2023/11/29 09:48:30;;;;;;;5.70;4.53;;;7.40;99.90;;;;;;5072672;28;20404;-69
2023/11/29 09:50:56;;;;;;;5.93;4.73;;;7.20;99.90;;;;;;5072539;28;20545;-69
2023/11/29 09:53:23;;;;;;;5.60;4.07;;;7.10;99.90;;;;;;5072459;28;20268;-69
2023/11/29 09:55:49;;;;;;;3.53;3.00;;;6.90;99.90;;;;;;5072537;28;20504;-69
2023/11/29 09:58:15;;;;;;;8.73;4.87;;;6.80;99.90;;;;;;5072147;28;20531;-69
2023/11/29 10:00:41;;;;;;;4.73;4.17;;;6.50;99.90;;;;;;5072368;28;20186;-69
2023/11/29 10:03:12;;;;;;;5.60;4.53;;;6.40;99.90;;;;;;5072406;28;20458;-69
2023/11/29 10:05:38;;;;;;;7.53;3.83;;;6.20;99.90;;;;;;5072318;28;20802;-69
2023/11/29 10:08:03;;;;;;;6.03;3.80;;;6.10;99.90;;;;;;5072064;28;20408;-69
2023/11/29 10:10:34;;;;;;;6.40;3.57;;;6.20;99.90;;;;;;5054245;28;20826;-69
2023/11/29 10:12:59;;;;;;;4.60;3.20;;;6.10;99.90;;;;;;5072246;28;20791;-69
2023/11/29 10:15:25;;;;;;;3.93;3.40;;;6.30;99.90;;;;;;5072183;28;20450;-69
2023/11/29 10:17:51;;;;;;;4.53;3.73;;;6.50;99.90;;;;;;5071911;28;20194;-69
2023/11/29 10:20:17;;;;;;;5.13;4.47;;;6.60;99.90;;;;;;5072106;28;20526;-69
2023/11/29 10:22:49;;;;;;;3.73;3.43;;;6.60;99.90;;;;;;5071831;28;20422;-69
2023/11/29 10:25:17;;;;;;;4.03;3.57;;;6.60;99.90;;;;;;5071944;28;20158;-69
2023/11/29 10:27:43;;;;;;;6.00;3.70;;;6.60;99.90;;;;;;5071894;28;20454;-69
2023/11/29 10:30:09;;;;;;;5.43;3.33;;;6.60;99.90;;;;;;5071959;28;20428;-69
2023/11/29 10:32:36;;;;;;;4.03;3.63;;;6.50;99.90;;;;;;5071861;28;20645;-69
2023/11/29 10:35:06;;;;;;;4.77;3.77;;;6.60;99.90;;;;;;5071976;28;20408;-69
2023/11/29 10:37:33;;;;;;;5.73;3.33;;;6.60;99.90;;;;;;5053739;28;20459;-69
2023/11/29 10:40:00;;;;;;;9.87;3.77;;;6.60;99.90;;;;;;5071839;28;20421;-69
2023/11/29 10:42:26;;;;;;;6.67;3.27;;;6.40;99.90;;;;;;5071888;28;20990;-69
2023/11/29 10:44:52;;;;;;;3.93;3.53;;;6.20;99.90;;;;;;5071845;28;20458;-69
2023/11/29 10:47:31;;;;;;;6.53;4.10;;;6.30;99.90;;;;;;5053633;28;20166;-69
2023/11/29 10:50:07;;;;;;;5.20;3.70;;;6.50;99.90;;;;;;5071768;28;20233;-69
2023/11/29 10:52:33;;;;;;;4.10;3.70;;;6.80;99.90;;;;;;5071555;28;20424;-69
2023/11/29 10:55:00;;;;;;;8.23;4.70;;;7.10;99.90;;;;;;5071760;28;20813;-69
2023/11/29 10:57:39;;;;;;;13.10;6.47;;;7.40;99.90;;;;;;5071482;28;20778;-69
2023/11/29 11:00:13;;;;;;;7.13;4.43;;;7.40;99.90;;;;;;5053698;28;20428;-69
2023/11/29 11:02:48;;;;;;;3.87;3.47;;;7.10;99.90;;;;;;5071645;28;20396;-69
2023/11/29 11:05:17;;;;;;;6.93;4.33;;;7.00;99.90;;;;;;5071404;28;20491;-69
2023/11/29 11:07:47;;;;;;;5.80;3.87;;;7.00;99.90;;;;;;5071493;28;20953;-69
2023/11/29 11:10:14;;;;;;;5.20;3.63;;;6.90;99.90;;;;;;5071589;28;20424;-69
2023/11/29 11:12:40;;;;;;;5.37;3.33;;;6.70;99.90;;;;;;5053555;28;20447;-69
2023/11/29 11:15:28;;;;;;;4.90;4.00;;;6.80;99.90;;;;;;5071551;28;20407;-69
2023/11/29 11:18:03;;;;;;;5.80;4.17;;;6.80;99.90;;;;;;5053275;28;20456;-69
2023/11/29 11:20:43;;;;;;;6.00;4.33;;;6.60;99.90;;;;;;5071339;28;20416;-69
2023/11/29 11:23:22;;;;;;;4.43;3.70;;;6.50;99.90;;;;;;5071515;28;20483;-69
2023/11/29 11:25:52;;;;;;;3.40;3.10;;;6.50;99.90;;;;;;5053500;28;20404;-69
2023/11/29 11:28:31;;;;;;;5.10;3.20;;;6.30;99.90;;;;;;5071634;28;20842;-69
2023/11/29 11:31:07;;;;;;;4.37;3.40;;;6.30;99.90;;;;;;5053347;28;20428;-69
2023/11/29 11:33:51;;;;;;;4.90;3.30;;;6.30;99.90;;;;;;5071393;28;20393;-69
2023/11/29 11:36:19;;;;;;;7.00;4.00;;;6.20;99.90;;;;;;5073235;28;20413;-69
2023/11/29 11:38:44;;;;;;;6.37;3.20;;;6.20;99.90;;;;;;5075023;28;20551;-69
2023/11/29 11:41:11;;;;;;;3.17;2.87;;;6.20;99.90;;;;;;5057009;28;20519;-69
2023/11/29 11:43:37;;;;;;;3.83;3.10;;;6.20;99.90;;;;;;5075068;28;20216;-69
2023/11/29 11:46:02;;;;;;;3.33;3.00;;;6.20;99.90;;;;;;5074982;28;20444;-69
2023/11/29 11:48:30;;;;;;;3.03;2.83;;;6.20;99.90;;;;;;5056676;28;20180;-69
2023/11/29 11:50:56;;;;;;;5.47;3.13;;;6.30;99.90;;;;;;5056840;28;20202;-69
2023/11/29 11:53:22;;;;;;;5.40;3.40;;;6.10;99.90;;;;;;5074746;28;20486;-69
2023/11/29 11:55:49;;;;;;;3.27;2.73;;;6.10;99.90;;;;;;5074757;28;20173;-69
2023/11/29 11:58:15;;;;;;;4.73;3.17;;;6.00;99.90;;;;;;5074473;28;20475;-69
2023/11/29 12:00:41;;;;;;;3.33;2.80;;;6.00;99.90;;;;;;5074629;28;20417;-69
2023/11/29 12:03:07;;;;;;;5.97;3.40;;;5.90;99.90;;;;;;5074598;28;20755;-69
2023/11/29 12:05:33;;;;;;;3.00;2.53;;;6.00;99.90;;;;;;5074572;28;20291;-69
2023/11/29 12:07:59;;;;;;;4.40;2.57;;;6.00;99.90;;;;;;5074389;28;20400;-69
2023/11/29 12:10:25;;;;;;;3.47;3.17;;;6.20;99.90;;;;;;5074436;28;20197;-69
2023/11/29 12:12:50;;;;;;;9.00;6.10;;;6.20;99.90;;;;;;5056376;28;20491;-69
2023/11/29 12:15:17;;;;;;;4.70;4.20;;;6.30;99.90;;;;;;5074439;28;20172;-69
2023/11/29 12:17:44;;;;;;;5.67;3.27;;;6.40;99.90;;;;;;5074156;28;20194;-69
2023/11/29 12:20:11;;;;;;;5.73;3.77;;;6.50;99.90;;;;;;5074286;28;20421;-69
2023/11/29 12:22:44;;;;;;;4.70;3.00;;;6.40;99.90;;;;;;5074289;28;20401;-69
2023/11/29 12:25:12;;;;;;;4.13;3.60;;;6.40;99.90;;;;;;5074360;28;20397;-69
2023/11/29 12:27:39;;;;;;;7.70;4.30;;;6.30;99.90;;;;;;5074025;28;20433;-69
2023/11/29 12:30:07;;;;;;;5.07;4.57;;;6.20;99.90;;;;;;5074210;28;20424;-69
2023/11/29 12:32:32;;;;;;;3.60;3.30;;;6.30;99.90;;;;;;5073787;28;20507;-69
2023/11/29 12:34:58;;;;;;;3.03;2.73;;;6.40;99.90;;;;;;5074059;28;20907;-67
2023/11/29 12:37:26;;;;;;;3.60;3.30;;;6.40;99.90;;;;;;5073771;28;20181;-68
2023/11/29 12:39:52;;;;;;;5.53;2.93;;;6.50;99.90;;;;;;5073996;28;20449;-68
2023/11/29 12:42:18;;;;;;;5.90;3.17;;;6.60;99.90;;;;;;5073902;28;20495;-69
2023/11/29 12:44:44;;;;;;;4.70;3.57;;;6.60;99.90;;;;;;5073939;28;20558;-68
2023/11/29 12:47:09;;;;;;;4.50;3.27;;;6.70;99.90;;;;;;5073386;28;20169;-68
2023/11/29 12:49:35;;;;;;;7.40;4.67;;;6.80;99.90;;;;;;5073703;28;20186;-68
2023/11/29 12:52:00;;;;;;;5.77;3.50;;;6.90;99.90;;;;;;5073495;28;20687;-68